createdAt,value
2018-05-25T00:02:00.008Z,9.60
2018-05-25T00:04:28.334Z,9.60
2018-05-25T00:06:55.909Z,9.60
2018-05-25T00:09:24.228Z,9.30
2018-05-25T00:11:51.792Z,9.30
2018-05-25T00:14:19.348Z,9.30
2018-05-25T00:16:46.904Z,9.30
2018-05-25T00:19:14.488Z,9.30
2018-05-25T00:21:42.047Z,9.20
2018-05-25T00:24:09.601Z,9.00
2018-05-25T00:26:37.156Z,9.10
2018-05-25T00:29:04.716Z,9.20
2018-05-25T00:31:32.305Z,9.10
2018-05-25T00:33:59.858Z,9.00
2018-05-25T00:36:27.409Z,9.00
2018-05-25T00:38:54.960Z,9.00
2018-05-25T00:41:22.508Z,9.00
2018-05-25T00:43:50.087Z,9.00
2018-05-25T00:46:17.638Z,8.90
2018-05-25T00:48:45.192Z,8.80
2018-05-25T00:51:12.756Z,8.80
2018-05-25T00:53:40.313Z,8.70
2018-05-25T00:56:07.871Z,8.60
2018-05-25T00:58:35.432Z,8.60
2018-05-25T01:01:03.022Z,8.60
2018-05-25T01:03:31.421Z,8.50
2018-05-25T01:05:58.981Z,8.50
2018-05-25T01:08:26.529Z,8.50
2018-05-25T01:10:54.843Z,8.50
2018-05-25T01:13:22.428Z,8.50
2018-05-25T01:15:49.973Z,8.50
2018-05-25T01:18:17.523Z,8.40
2018-05-25T01:20:45.074Z,8.40
2018-05-25T01:23:12.624Z,8.40
2018-05-25T01:25:40.205Z,8.30
2018-05-25T01:28:07.753Z,8.30
2018-05-25T01:30:35.301Z,8.30
2018-05-25T01:33:02.878Z,8.20
2018-05-25T01:35:30.436Z,8.10
2018-05-25T01:37:58.008Z,7.90
2018-05-25T01:40:25.556Z,7.90
2018-05-25T01:42:53.101Z,8.00
2018-05-25T01:45:20.660Z,8.00
2018-05-25T01:47:48.212Z,8.00
2018-05-25T01:50:15.783Z,7.90
2018-05-25T01:52:43.332Z,7.90
2018-05-25T01:55:10.877Z,7.90
2018-05-25T01:57:38.425Z,7.80
2018-05-25T02:00:05.997Z,7.70
2018-05-25T02:02:34.347Z,7.60
2018-05-25T02:05:01.901Z,7.50
2018-05-25T02:07:29.456Z,7.60
2018-05-25T02:09:57.016Z,7.70
2018-05-25T02:12:24.583Z,7.70
2018-05-25T02:14:52.161Z,7.60
2018-05-25T02:17:19.707Z,7.60
2018-05-25T02:19:47.290Z,7.50
2018-05-25T02:22:14.838Z,7.50
2018-05-25T02:24:42.391Z,7.60
2018-05-25T02:27:09.981Z,7.60
2018-05-25T02:29:37.528Z,7.60
2018-05-25T02:32:05.093Z,7.70
2018-05-25T02:34:32.641Z,7.60
2018-05-25T02:37:00.189Z,7.60
2018-05-25T02:39:27.763Z,7.60
2018-05-25T02:41:55.315Z,7.70
2018-05-25T02:44:22.868Z,7.70
2018-05-25T02:46:50.435Z,7.60
2018-05-25T02:49:17.989Z,7.60
2018-05-25T02:51:45.572Z,7.50
2018-05-25T02:54:13.122Z,7.60
2018-05-25T02:56:40.669Z,7.70
2018-05-25T02:59:08.217Z,7.70
2018-05-25T03:01:35.767Z,7.70
2018-05-25T03:04:03.344Z,7.70
2018-05-25T03:06:30.896Z,7.70
2018-05-25T03:08:58.452Z,7.60
2018-05-25T03:11:26.001Z,7.70
2018-05-25T03:13:53.565Z,7.70
2018-05-25T03:16:21.155Z,7.70
2018-05-25T03:18:48.702Z,7.80
2018-05-25T03:21:16.248Z,7.80
2018-05-25T03:23:43.800Z,7.80
2018-05-25T03:26:11.356Z,7.90
2018-05-25T03:28:38.976Z,7.90
2018-05-25T03:31:06.540Z,8.00
2018-05-25T03:33:34.088Z,8.00
2018-05-25T03:36:02.401Z,8.10
2018-05-25T03:38:29.948Z,8.10
2018-05-25T03:40:57.520Z,8.10
2018-05-25T03:43:25.080Z,8.20
2018-05-25T03:45:52.627Z,8.30
2018-05-25T03:48:20.175Z,8.20
2018-05-25T03:50:47.732Z,8.30
2018-05-25T03:53:15.310Z,8.60
2018-05-25T03:55:42.865Z,8.80
2018-05-25T03:58:10.413Z,9.00
2018-05-25T04:00:49.798Z,9.20
2018-05-25T04:03:17.358Z,9.30
2018-05-25T04:05:45.701Z,9.20
2018-05-25T04:08:13.264Z,9.20
2018-05-25T04:10:40.823Z,9.30
2018-05-25T04:13:08.376Z,9.30
2018-05-25T04:15:35.953Z,9.30
2018-05-25T04:18:04.304Z,9.50
2018-05-25T04:20:31.861Z,9.50
2018-05-25T04:22:59.423Z,9.50
2018-05-25T04:25:27.000Z,9.70
2018-05-25T04:27:54.555Z,9.80
2018-05-25T04:30:22.108Z,9.80
2018-05-25T04:32:49.688Z,9.90
2018-05-25T04:35:17.291Z,10.00
2018-05-25T04:37:44.844Z,10.10
2018-05-25T04:40:12.509Z,10.30
2018-05-25T04:42:40.071Z,10.60
2018-05-25T04:45:07.733Z,10.70
2018-05-25T04:47:35.294Z,10.80
2018-05-25T04:50:02.863Z,11.10
2018-05-25T04:52:30.484Z,11.50
2018-05-25T04:54:58.012Z,11.70
2018-05-25T04:57:25.568Z,12.00
2018-05-25T04:59:53.148Z,12.10
2018-05-25T05:02:21.496Z,12.40
2018-05-25T05:04:49.061Z,12.40
2018-05-25T05:07:16.620Z,12.50
2018-05-25T05:09:44.173Z,12.60
2018-05-25T05:12:11.763Z,12.60
2018-05-25T05:14:39.492Z,12.70
2018-05-25T05:17:07.056Z,13.00
2018-05-25T05:19:34.617Z,13.20
2018-05-25T05:22:02.949Z,13.50
2018-05-25T05:24:30.524Z,13.50
2018-05-25T05:26:58.083Z,13.70
2018-05-25T05:29:25.636Z,13.90
2018-05-25T05:31:53.208Z,13.90
2018-05-25T05:34:20.756Z,14.10
2018-05-25T05:36:48.348Z,14.30
2018-05-25T05:39:16.680Z,14.70
2018-05-25T05:41:44.247Z,14.60
2018-05-25T05:44:11.813Z,14.80
2018-05-25T05:46:39.364Z,15.10
2018-05-25T05:49:06.976Z,15.40
2018-05-25T05:51:34.536Z,15.60
2018-05-25T05:54:02.096Z,15.80
2018-05-25T05:56:29.656Z,16.10
2018-05-25T05:58:57.216Z,16.50
2018-05-25T06:01:24.798Z,17.00
2018-05-25T06:03:52.364Z,17.30
2018-05-25T06:06:19.915Z,17.60
2018-05-25T06:08:47.483Z,18.10
2018-05-25T06:11:15.035Z,18.60
2018-05-25T06:13:42.658Z,19.10
2018-05-25T06:16:10.245Z,19.40
2018-05-25T06:18:37.798Z,19.60
2018-05-25T06:21:05.352Z,19.70
2018-05-25T06:23:32.910Z,20.30
2018-05-25T06:26:00.488Z,20.20
2018-05-25T06:28:28.044Z,20.40
2018-05-25T06:30:55.618Z,20.80
2018-05-25T06:33:23.170Z,21.40
2018-05-25T06:35:50.763Z,21.30
2018-05-25T06:38:18.364Z,21.70
2018-05-25T06:40:45.923Z,21.90
2018-05-25T06:43:13.480Z,22.10
2018-05-25T06:45:41.042Z,22.30
2018-05-25T06:48:08.604Z,22.20
2018-05-25T06:50:36.193Z,22.00
2018-05-25T06:53:03.780Z,22.50
2018-05-25T06:55:32.144Z,22.60
2018-05-25T06:58:00.491Z,22.40
2018-05-25T07:00:28.069Z,22.40
2018-05-25T07:02:55.656Z,22.20
2018-05-25T07:05:23.213Z,22.60
2018-05-25T07:07:50.772Z,23.20
2018-05-25T07:10:18.324Z,23.10
2018-05-25T07:12:45.888Z,22.70
2018-05-25T07:15:14.245Z,23.30
2018-05-25T07:17:41.811Z,23.30
2018-05-25T07:20:09.364Z,22.80
2018-05-25T07:22:36.924Z,23.60
2018-05-25T07:25:05.248Z,23.90
2018-05-25T07:27:32.829Z,23.90
2018-05-25T07:30:00.386Z,23.70
2018-05-25T07:32:27.963Z,23.60
2018-05-25T07:34:55.523Z,24.10
2018-05-25T07:37:23.084Z,24.40
2018-05-25T07:39:50.668Z,24.40
2018-05-25T07:42:18.228Z,24.10
2018-05-25T07:44:45.911Z,24.00
2018-05-25T07:47:13.480Z,24.50
2018-05-25T07:49:41.081Z,24.70
2018-05-25T07:52:08.652Z,24.30
2018-05-25T07:54:36.204Z,24.20
2018-05-25T07:57:04.520Z,24.30
2018-05-25T07:59:32.076Z,24.20
2018-05-25T08:01:59.631Z,23.70
2018-05-25T08:04:27.212Z,24.20
2018-05-25T08:06:54.775Z,25.10
2018-05-25T08:09:22.328Z,24.90
2018-05-25T08:11:49.899Z,24.70
2018-05-25T08:14:17.452Z,25.10
2018-05-25T08:16:45.053Z,24.10
2018-05-25T08:19:12.608Z,24.40
2018-05-25T08:21:40.231Z,24.00
2018-05-25T08:24:07.744Z,24.50
2018-05-25T08:26:35.310Z,24.50
2018-05-25T08:29:02.892Z,24.40
2018-05-25T08:31:30.448Z,24.40
2018-05-25T08:33:57.999Z,25.20
2018-05-25T08:36:25.556Z,25.20
2018-05-25T08:38:53.116Z,25.40
2018-05-25T08:41:20.697Z,25.30
2018-05-25T08:43:48.248Z,25.40
2018-05-25T08:46:15.804Z,25.90
2018-05-25T08:48:43.357Z,25.70
2018-05-25T08:51:10.914Z,25.70
2018-05-25T08:53:38.496Z,25.90
2018-05-25T08:56:06.051Z,25.60
2018-05-25T08:58:33.604Z,26.10
2018-05-25T09:01:01.156Z,26.30
2018-05-25T09:03:30.221Z,26.60
2018-05-25T09:05:57.788Z,26.60
2018-05-25T09:08:25.345Z,25.50
2018-05-25T09:10:52.903Z,26.10
2018-05-25T09:13:20.468Z,26.40
2018-05-25T09:15:48.028Z,26.30
2018-05-25T09:18:15.621Z,26.10
2018-05-25T09:20:43.949Z,26.60
2018-05-25T09:23:11.503Z,26.60
2018-05-25T09:25:39.057Z,26.60
2018-05-25T09:28:06.604Z,25.80
2018-05-25T09:30:34.187Z,26.30
2018-05-25T09:33:01.742Z,26.90
2018-05-25T09:35:29.309Z,26.90
2018-05-25T09:37:56.868Z,27.20
2018-05-25T09:40:24.430Z,27.10
2018-05-25T09:42:52.001Z,27.10
2018-05-25T09:45:19.555Z,27.30
2018-05-25T09:47:47.111Z,27.30
2018-05-25T09:50:14.680Z,27.40
2018-05-25T09:52:46.036Z,27.00
2018-05-25T09:55:13.612Z,26.70
2018-05-25T09:58:00.526Z,26.80
2018-05-25T10:00:28.116Z,26.70
2018-05-25T10:02:55.675Z,26.60
2018-05-25T10:05:23.239Z,27.40
2018-05-25T10:07:50.799Z,27.20
2018-05-25T10:10:18.364Z,27.30
2018-05-25T10:12:45.949Z,27.00
2018-05-25T10:15:13.760Z,27.00
2018-05-25T10:17:41.316Z,27.20
2018-05-25T10:20:08.868Z,26.90
2018-05-25T10:22:36.433Z,27.10
2018-05-25T10:25:04.010Z,26.90
2018-05-25T10:27:31.572Z,27.00
2018-05-25T10:29:59.137Z,26.60
2018-05-25T10:32:26.710Z,26.60
2018-05-25T10:34:54.273Z,27.10
2018-05-25T10:37:21.833Z,26.60
2018-05-25T10:39:49.408Z,26.80
2018-05-25T10:42:16.960Z,26.80
2018-05-25T10:44:44.521Z,26.30
2018-05-25T10:47:12.836Z,27.00
2018-05-25T10:49:40.389Z,27.00
2018-05-25T10:52:07.939Z,27.10
2018-05-25T10:54:35.493Z,26.60
2018-05-25T10:57:03.044Z,26.50
2018-05-25T10:59:30.601Z,27.20
2018-05-25T11:01:58.156Z,27.20
2018-05-25T11:04:25.715Z,27.10
2018-05-25T11:06:53.288Z,27.60
2018-05-25T11:09:20.850Z,26.50
2018-05-25T11:11:48.401Z,26.70
2018-05-25T11:14:15.969Z,26.50
2018-05-25T11:16:43.528Z,26.30
2018-05-25T11:19:11.111Z,26.40
2018-05-25T11:21:38.660Z,26.60
2018-05-25T11:24:06.231Z,26.80
2018-05-25T11:26:33.784Z,26.80
2018-05-25T11:29:01.345Z,27.20
2018-05-25T11:31:28.952Z,26.20
2018-05-25T11:33:57.274Z,26.30
2018-05-25T11:36:24.835Z,26.30
2018-05-25T11:38:52.394Z,26.20
2018-05-25T11:41:19.953Z,26.10
2018-05-25T11:43:47.536Z,25.80
2018-05-25T11:46:15.088Z,25.00
2018-05-25T11:48:42.640Z,25.10
2018-05-25T11:51:10.227Z,25.60
2018-05-25T11:53:37.777Z,25.70
2018-05-25T11:56:05.360Z,25.70
2018-05-25T11:58:32.912Z,26.00
2018-05-25T12:01:01.241Z,26.90
2018-05-25T12:03:28.792Z,26.90
2018-05-25T12:05:56.352Z,26.20
2018-05-25T12:08:23.927Z,25.50
2018-05-25T12:10:51.484Z,25.40
2018-05-25T12:13:19.044Z,25.40
2018-05-25T12:15:46.595Z,25.50
2018-05-25T12:18:14.150Z,24.90
2018-05-25T12:20:41.738Z,24.70
2018-05-25T12:23:10.056Z,25.20
2018-05-25T12:25:37.604Z,25.20
2018-05-25T12:28:05.223Z,25.20
2018-05-25T12:30:32.741Z,24.80
2018-05-25T12:33:00.308Z,25.00
2018-05-25T12:35:27.864Z,25.20
2018-05-25T12:37:56.193Z,25.50
2018-05-25T12:40:24.510Z,26.00
2018-05-25T12:42:52.060Z,25.90
2018-05-25T12:45:19.633Z,25.70
2018-05-25T12:47:47.193Z,26.20
2018-05-25T12:50:14.744Z,26.40
2018-05-25T12:52:42.392Z,26.90
2018-05-25T12:55:09.951Z,26.30
2018-05-25T12:57:37.524Z,26.20
2018-05-25T13:00:05.072Z,26.30
2018-05-25T13:02:32.628Z,26.10
2018-05-25T13:05:00.183Z,25.70
2018-05-25T13:07:27.738Z,25.10
2018-05-25T13:09:55.315Z,25.60
2018-05-25T13:12:22.874Z,26.00
2018-05-25T13:14:50.431Z,26.90
2018-05-25T13:17:17.993Z,25.00
2018-05-25T13:19:45.544Z,25.00
2018-05-25T13:22:13.125Z,25.30
2018-05-25T13:24:40.685Z,25.70
2018-05-25T13:27:08.242Z,25.50
2018-05-25T13:29:35.795Z,25.60
2018-05-25T13:32:03.358Z,24.90
2018-05-25T13:34:30.934Z,24.40
2018-05-25T13:36:59.256Z,24.80
2018-05-25T13:39:26.813Z,24.70
2018-05-25T13:41:54.373Z,24.60
2018-05-25T13:44:21.925Z,24.20
2018-05-25T13:46:49.493Z,23.90
2018-05-25T13:49:17.101Z,24.00
2018-05-25T13:51:44.619Z,23.60
2018-05-25T13:54:12.212Z,23.60
2018-05-25T13:56:39.772Z,23.60
2018-05-25T13:59:07.351Z,23.00
2018-05-25T14:01:34.904Z,23.10
2018-05-25T14:04:02.472Z,23.20
2018-05-25T14:06:30.032Z,23.40
2018-05-25T14:08:57.588Z,22.80
2018-05-25T14:11:25.166Z,22.80
2018-05-25T14:13:52.723Z,22.80
2018-05-25T14:16:20.281Z,22.50
2018-05-25T14:18:47.840Z,22.50
2018-05-25T14:21:15.401Z,22.30
2018-05-25T14:23:42.983Z,22.30
2018-05-25T14:26:10.535Z,22.60
2018-05-25T14:28:38.099Z,22.70
2018-05-25T14:31:05.652Z,22.50
2018-05-25T14:33:33.218Z,22.50
2018-05-25T14:36:00.808Z,22.60
2018-05-25T14:38:29.132Z,22.40
2018-05-25T14:40:56.692Z,22.40
2018-05-25T14:43:24.249Z,22.50
2018-05-25T14:45:51.800Z,22.50
2018-05-25T14:48:19.378Z,22.50
2018-05-25T14:50:47.696Z,22.40
2018-05-25T14:53:15.252Z,22.40
2018-05-25T14:55:43.572Z,22.00
2018-05-25T14:58:11.140Z,22.00
2018-05-25T15:00:38.719Z,21.90
2018-05-25T15:03:06.279Z,22.10
2018-05-25T15:05:33.837Z,21.80
2018-05-25T15:08:01.395Z,21.70
2018-05-25T15:10:28.957Z,21.80
2018-05-25T15:12:56.570Z,21.60
2018-05-25T15:15:24.124Z,21.50
2018-05-25T15:17:51.688Z,21.30
2018-05-25T15:20:19.241Z,21.40
2018-05-25T15:22:46.804Z,21.60
2018-05-25T15:25:14.384Z,21.70
2018-05-25T15:27:41.944Z,21.70
2018-05-25T15:30:09.504Z,21.80
2018-05-25T15:32:37.168Z,21.50
2018-05-25T15:35:04.646Z,21.30
2018-05-25T15:37:32.995Z,21.30
2018-05-25T15:40:00.556Z,21.20
2018-05-25T15:42:28.120Z,21.20
2018-05-25T15:44:55.676Z,21.20
2018-05-25T15:47:23.237Z,21.30
2018-05-25T15:49:50.824Z,21.20
2018-05-25T15:52:19.144Z,21.40
2018-05-25T15:54:46.697Z,21.40
2018-05-25T15:57:14.252Z,21.30
2018-05-25T15:59:41.800Z,21.00
2018-05-25T16:02:09.439Z,21.00
2018-05-25T16:04:36.964Z,21.00
2018-05-25T16:07:04.516Z,20.90
2018-05-25T16:09:32.076Z,21.00
2018-05-25T16:11:59.643Z,21.20
2018-05-25T16:14:27.215Z,21.10
2018-05-25T16:16:55.540Z,21.00
2018-05-25T16:19:23.089Z,21.00
2018-05-25T16:21:51.380Z,21.10
2018-05-25T16:24:18.932Z,20.90
2018-05-25T16:26:46.540Z,20.60
2018-05-25T16:29:14.285Z,20.70
2018-05-25T16:31:41.840Z,21.00
2018-05-25T16:34:09.456Z,21.20
2018-05-25T16:36:37.012Z,21.20
2018-05-25T16:39:04.588Z,21.00
2018-05-25T16:41:32.235Z,20.70
2018-05-25T16:43:59.792Z,20.60
2018-05-25T16:46:27.405Z,20.80
2018-05-25T16:48:54.928Z,20.60
2018-05-25T16:51:22.514Z,20.30
2018-05-25T16:53:50.848Z,20.40
2018-05-25T16:56:18.504Z,20.40
2018-05-25T16:58:46.109Z,20.40
2018-05-25T17:01:13.831Z,20.50
2018-05-25T17:03:41.414Z,20.50
2018-05-25T17:06:08.973Z,20.40
2018-05-25T17:08:36.549Z,20.30
2018-05-25T17:11:04.128Z,20.30
2018-05-25T17:13:31.726Z,20.30
2018-05-25T17:15:59.313Z,20.30
2018-05-25T17:18:26.871Z,20.00
2018-05-25T17:20:54.425Z,20.00
2018-05-25T17:23:21.993Z,19.90
2018-05-25T17:25:49.549Z,19.80
2018-05-25T17:28:17.152Z,19.70
2018-05-25T17:30:44.730Z,19.70
2018-05-25T17:33:12.285Z,19.70
2018-05-25T17:35:39.860Z,19.60
2018-05-25T17:38:09.049Z,19.60
2018-05-25T17:40:36.608Z,19.70
2018-05-25T17:43:04.167Z,19.60
2018-05-25T17:45:31.746Z,19.50
2018-05-25T17:47:59.309Z,19.60
2018-05-25T17:50:26.864Z,19.50
2018-05-25T17:52:54.415Z,19.40
2018-05-25T17:55:22.153Z,19.30
2018-05-25T17:57:49.704Z,19.30
2018-05-25T18:00:17.269Z,19.40
2018-05-25T18:02:44.825Z,19.20
2018-05-25T18:05:13.080Z,19.30
2018-05-25T18:07:40.676Z,19.20
2018-05-25T18:10:08.248Z,19.00
2018-05-25T18:12:35.808Z,19.00
2018-05-25T18:15:03.393Z,18.90
2018-05-25T18:17:31.719Z,18.90
2018-05-25T18:19:59.312Z,18.80
2018-05-25T18:22:26.867Z,18.80
2018-05-25T18:24:54.420Z,18.80
2018-05-25T18:27:22.033Z,18.70
2018-05-25T18:29:49.552Z,18.60
2018-05-25T18:32:17.909Z,18.70
2018-05-25T18:34:45.468Z,18.70
2018-05-25T18:37:13.021Z,18.50
2018-05-25T18:39:40.588Z,18.40
2018-05-25T18:42:08.148Z,18.30
2018-05-25T18:44:36.493Z,18.10
2018-05-25T18:47:04.046Z,18.10
2018-05-25T18:49:31.603Z,18.00
2018-05-25T18:51:59.171Z,18.00
2018-05-25T18:54:32.454Z,18.00
2018-05-25T18:57:00.121Z,17.90
2018-05-25T18:59:27.676Z,17.60
2018-05-25T19:01:55.235Z,17.70
2018-05-25T19:04:22.805Z,17.60
2018-05-25T19:06:50.369Z,17.50
2018-05-25T19:09:17.952Z,17.40
2018-05-25T19:11:45.510Z,17.40
2018-05-25T19:14:13.061Z,17.30
2018-05-25T19:16:40.623Z,17.20
2018-05-25T19:19:08.189Z,17.20
2018-05-25T19:21:36.558Z,16.80
2018-05-25T19:24:04.118Z,16.80
2018-05-25T19:26:31.676Z,16.60
2018-05-25T19:28:59.246Z,16.50
2018-05-25T19:31:27.568Z,16.50
2018-05-25T19:33:55.167Z,16.50
2018-05-25T19:36:22.732Z,16.40
2018-05-25T19:38:50.292Z,16.30
2018-05-25T19:41:18.611Z,16.10
2018-05-25T19:43:46.168Z,16.10
2018-05-25T19:48:42.449Z,15.90
2018-05-25T19:51:10.013Z,15.80
2018-05-25T19:53:37.620Z,15.80
2018-05-25T19:56:05.235Z,15.80
2018-05-25T19:58:32.788Z,15.80
2018-05-25T20:01:00.341Z,15.70
2018-05-25T20:03:27.892Z,15.60
2018-05-25T20:05:55.490Z,15.50
2018-05-25T20:08:23.045Z,15.40
2018-05-25T20:10:50.603Z,15.30
2018-05-25T20:13:18.193Z,15.30
2018-05-25T20:15:45.749Z,15.30
2018-05-25T20:18:15.755Z,15.10
2018-05-25T20:20:46.257Z,15.20
2018-05-25T20:23:15.510Z,15.00
2018-05-25T20:25:45.189Z,14.90
2018-05-25T20:28:14.466Z,14.90
2018-05-25T20:30:44.721Z,14.60
2018-05-25T20:33:13.723Z,14.50
2018-05-25T20:35:43.276Z,14.50
2018-05-25T20:38:13.548Z,14.30
2018-05-25T20:40:43.386Z,14.30
2018-05-25T20:43:13.020Z,14.40
2018-05-25T20:45:40.649Z,14.40
2018-05-25T20:48:08.972Z,13.90
2018-05-25T20:50:36.528Z,13.90
2018-05-25T20:53:04.081Z,13.70
2018-05-25T20:55:31.664Z,13.60
2018-05-25T20:57:59.222Z,13.60
2018-05-25T21:00:26.780Z,13.60
2018-05-25T21:02:54.332Z,13.70
2018-05-25T21:05:21.886Z,13.60
2018-05-25T21:07:49.484Z,13.40
2018-05-25T21:10:17.076Z,13.40
2018-05-25T21:12:44.637Z,13.10
2018-05-25T21:15:12.200Z,13.00
2018-05-25T21:17:39.799Z,12.80
2018-05-25T21:20:07.347Z,12.70
2018-05-25T21:22:34.931Z,12.80
2018-05-25T21:25:02.492Z,12.90
2018-05-25T21:27:30.049Z,12.80
2018-05-25T21:29:57.643Z,12.70
2018-05-25T21:32:25.199Z,12.50
2018-05-25T21:34:52.796Z,12.50
2018-05-25T21:37:20.388Z,12.60
2018-05-25T21:39:47.947Z,12.60
2018-05-25T21:42:15.506Z,12.50
2018-05-25T21:44:43.066Z,12.40
2018-05-25T21:47:10.656Z,12.40
2018-05-25T21:49:38.220Z,12.40
2018-05-25T21:52:05.784Z,12.40
2018-05-25T21:54:33.348Z,12.30
2018-05-25T21:57:00.908Z,12.30
2018-05-25T21:59:28.496Z,12.20
2018-05-25T22:01:56.059Z,12.10
2018-05-25T22:04:23.617Z,11.90
2018-05-25T22:06:51.176Z,11.80
2018-05-25T22:09:18.736Z,11.70
2018-05-25T22:11:46.324Z,11.60
2018-05-25T22:14:13.885Z,11.70
2018-05-25T22:16:42.281Z,11.80
2018-05-25T22:19:09.804Z,11.80
2018-05-25T22:21:37.362Z,11.70
2018-05-25T22:24:04.977Z,11.70
2018-05-25T22:26:32.638Z,11.70
2018-05-25T22:29:00.215Z,11.70
2018-05-25T22:31:27.775Z,11.60
2018-05-25T22:33:55.339Z,11.60
2018-05-25T22:36:22.924Z,11.50
2018-05-25T22:38:50.484Z,11.40
2018-05-25T22:41:18.052Z,11.30
2018-05-25T22:43:58.104Z,11.20
2018-05-25T22:46:38.126Z,10.90
2018-05-25T22:49:17.632Z,10.80
2018-05-25T22:51:57.062Z,10.90
2018-05-25T22:54:34.209Z,10.70
2018-05-25T22:57:01.805Z,10.80
2018-05-25T22:59:29.364Z,10.60
2018-05-25T23:01:56.924Z,10.60
2018-05-25T23:04:24.495Z,10.70
2018-05-25T23:06:52.052Z,10.70
2018-05-25T23:09:19.608Z,10.60
2018-05-25T23:11:47.196Z,10.30
2018-05-25T23:14:14.753Z,10.30
2018-05-25T23:16:42.308Z,10.40
2018-05-25T23:19:09.868Z,10.50
2018-05-25T23:21:37.424Z,10.60
2018-05-25T23:24:04.977Z,10.50
2018-05-25T23:26:32.531Z,10.40
2018-05-25T23:29:00.090Z,10.40
2018-05-25T23:31:27.654Z,10.30
2018-05-25T23:33:55.209Z,10.20
2018-05-25T23:36:22.769Z,10.10
2018-05-25T23:38:50.360Z,10.10
2018-05-25T23:41:17.916Z,10.10
2018-05-25T23:43:45.473Z,10.10
2018-05-25T23:46:13.034Z,10.00
2018-05-25T23:48:40.594Z,10.00
2018-05-25T23:51:08.178Z,9.90
2018-05-25T23:53:35.727Z,9.80
2018-05-25T23:56:03.280Z,9.70
2018-05-25T23:58:30.829Z,9.70
